createdAt,value
2022-12-20T00:00:51.767Z,-7.07
2022-12-20T00:03:18.790Z,-7.13
2022-12-20T00:05:45.438Z,-7.15
2022-12-20T00:08:12.341Z,-7.13
2022-12-20T00:10:40.993Z,-7.12
2022-12-20T00:13:08.300Z,-7.11
2022-12-20T00:15:35.470Z,-7.09
2022-12-20T00:18:02.175Z,-7.21
2022-12-20T00:20:29.351Z,-7.24
2022-12-20T00:22:56.359Z,-7.19
2022-12-20T00:25:23.043Z,-7.13
2022-12-20T00:27:50.261Z,-7.22
2022-12-20T00:30:18.080Z,-7.11
2022-12-20T00:32:45.250Z,-7.08
2022-12-20T00:35:12.450Z,-7.02
2022-12-20T00:37:39.253Z,-7.11
2022-12-20T00:40:06.648Z,-7.09
2022-12-20T00:42:33.392Z,-7.15
2022-12-20T00:44:59.937Z,-7.18
2022-12-20T00:47:26.473Z,-7.25
2022-12-20T00:49:53.023Z,-7.19
2022-12-20T00:52:19.628Z,-7.04
2022-12-20T00:54:46.144Z,-7.01
2022-12-20T00:57:12.729Z,-6.99
2022-12-20T00:59:39.249Z,-7.08
2022-12-20T01:02:05.933Z,-6.98
2022-12-20T01:04:32.686Z,-6.97
2022-12-20T01:06:59.560Z,-6.97
2022-12-20T01:09:26.094Z,-6.97
2022-12-20T01:11:52.637Z,-6.95
2022-12-20T01:14:19.155Z,-6.91
2022-12-20T01:16:47.397Z,-6.94
2022-12-20T01:19:17.398Z,-6.85
2022-12-20T01:21:44.925Z,-6.88
2022-12-20T01:24:12.820Z,-6.86
2022-12-20T01:26:39.490Z,-6.88
2022-12-20T01:29:06.059Z,-6.78
2022-12-20T01:31:32.960Z,-6.85
2022-12-20T01:34:00.793Z,-6.76
2022-12-20T01:36:31.225Z,-6.75
2022-12-20T01:39:03.130Z,-6.72
2022-12-20T01:41:30.843Z,-6.70
2022-12-20T01:44:00.343Z,-6.66
2022-12-20T01:46:29.491Z,-6.61
2022-12-20T01:49:22.213Z,-6.60
2022-12-20T01:52:20.043Z,-6.58
2022-12-20T01:55:00.411Z,-6.57
2022-12-20T01:57:44.794Z,-6.54
2022-12-20T02:00:12.845Z,-6.59
2022-12-20T02:02:40.745Z,-6.60
2022-12-20T02:05:07.755Z,-6.57
2022-12-20T02:07:37.180Z,-6.54
2022-12-20T02:10:04.857Z,-6.53
2022-12-20T02:12:40.360Z,-6.48
2022-12-20T02:15:24.819Z,-6.50
2022-12-20T02:18:12.330Z,-6.39
2022-12-20T02:20:53.957Z,-6.49
2022-12-20T02:24:14.347Z,-6.52
2022-12-20T02:27:17.250Z,-6.53
2022-12-20T02:30:05.633Z,-6.53
2022-12-20T02:32:43.417Z,-6.47
2022-12-20T02:35:14.367Z,-6.49
2022-12-20T02:37:52.303Z,-6.43
2022-12-20T02:40:27.838Z,-6.41
2022-12-20T02:42:58.939Z,-6.45
2022-12-20T02:45:33.885Z,-6.38
2022-12-20T02:48:06.942Z,-6.36
2022-12-20T02:50:45.718Z,-6.31
2022-12-20T02:53:13.863Z,-6.33
2022-12-20T02:56:36.235Z,-6.29
2022-12-20T02:59:11.816Z,-6.27
2022-12-20T03:01:45.032Z,-6.21
2022-12-20T03:04:12.581Z,-6.09
2022-12-20T03:06:40.320Z,-6.10
2022-12-20T03:09:06.879Z,-6.04
2022-12-20T03:11:33.937Z,-6.06
2022-12-20T03:14:00.434Z,-5.98
2022-12-20T03:16:27.142Z,-5.99
2022-12-20T03:18:53.701Z,-5.95
2022-12-20T03:21:20.252Z,-6.02
2022-12-20T03:23:46.989Z,-5.98
2022-12-20T03:26:13.511Z,-5.97
2022-12-20T03:28:40.032Z,-5.93
2022-12-20T03:31:06.785Z,-5.86
2022-12-20T03:33:33.375Z,-5.85
2022-12-20T03:36:00.044Z,-5.85
2022-12-20T03:38:26.598Z,-5.80
2022-12-20T03:40:53.270Z,-5.78
2022-12-20T03:43:19.764Z,-5.73
2022-12-20T03:45:46.318Z,-5.74
2022-12-20T03:48:12.881Z,-5.68
2022-12-20T03:50:39.427Z,-5.62
2022-12-20T03:53:06.028Z,-5.53
2022-12-20T03:55:32.582Z,-5.53
2022-12-20T03:57:59.135Z,-5.45
2022-12-20T04:00:26.207Z,-5.51
2022-12-20T04:02:52.964Z,-5.43
2022-12-20T04:05:19.718Z,-5.39
2022-12-20T04:07:46.255Z,-5.37
2022-12-20T04:10:13.090Z,-5.31
2022-12-20T04:12:39.614Z,-5.26
2022-12-20T04:15:06.642Z,-5.24
2022-12-20T04:17:33.127Z,-5.16
2022-12-20T04:20:18.860Z,-5.08
2022-12-20T04:22:49.923Z,-5.07
2022-12-20T04:25:18.596Z,-5.03
2022-12-20T04:27:45.605Z,-5.03
2022-12-20T04:30:13.049Z,-5.03
2022-12-20T04:32:39.570Z,-5.01
2022-12-20T04:35:07.009Z,-5.04
2022-12-20T04:37:33.531Z,-5.03
2022-12-20T04:40:00.068Z,-5.05
2022-12-20T04:42:26.672Z,-5.01
2022-12-20T04:44:53.244Z,-4.92
2022-12-20T04:47:19.926Z,-4.92
2022-12-20T04:49:46.480Z,-4.93
2022-12-20T04:52:31.300Z,-4.79
2022-12-20T04:54:57.917Z,-4.78
2022-12-20T04:57:24.445Z,-4.70
2022-12-20T04:59:50.931Z,-4.68
2022-12-20T05:02:17.576Z,-4.65
2022-12-20T05:04:44.167Z,-4.61
